Time;durP1;ratioP1;P1;durP2;ratioP2;P2;SDS_P1;SDS_P2;PMS_P1;PMS_P2;Temp;Humidity;BMP_temperature;BMP_pressure;BME280_temperature;BME280_humidity;BME280_pressure;Samples;Min_cycle;Max_cycle;Signal;HPM_P1;HPM_P2
2022/05/11 00:01:16;;;;;;;1.70;1.70;;;21.60;69.60;;;;;;5046991;28;43964;-70
2022/05/11 00:03:44;;;;;;;1.93;1.70;;;21.70;69.00;;;;;;5047449;28;43968;-71
2022/05/11 00:06:12;;;;;;;1.70;1.70;;;21.70;69.10;;;;;;5045220;28;46244;-70
2022/05/11 00:08:40;;;;;;;1.87;1.70;;;21.60;69.10;;;;;;5047047;28;44034;-71
2022/05/11 00:11:09;;;;;;;1.80;1.80;;;21.50;68.50;;;;;;5046896;28;43883;-72
2022/05/11 00:13:37;;;;;;;1.50;1.50;;;21.40;68.10;;;;;;5047525;28;43436;-70
2022/05/11 00:16:06;;;;;;;1.90;1.80;;;21.40;68.40;;;;;;5028606;28;45652;-72
2022/05/11 00:18:35;;;;;;;1.70;1.60;;;21.30;68.50;;;;;;5044553;28;44332;-70
2022/05/11 00:21:03;;;;;;;1.70;1.70;;;21.30;70.70;;;;;;5046720;28;43381;-70
2022/05/11 00:23:31;;;;;;;1.90;1.90;;;21.40;70.90;;;;;;5047314;28;43906;-71
2022/05/11 00:25:59;;;;;;;1.60;1.60;;;21.40;70.10;;;;;;5046564;28;43979;-71
2022/05/11 00:28:27;;;;;;;1.70;1.70;;;21.50;69.80;;;;;;5028482;28;44995;-72
2022/05/11 00:30:57;;;;;;;1.70;1.70;;;21.50;69.80;;;;;;5046822;28;43380;-71
2022/05/11 00:33:27;;;;;;;1.50;1.50;;;21.40;69.00;;;;;;5047042;28;43421;-70
2022/05/11 00:35:57;;;;;;;1.70;1.70;;;21.30;68.50;;;;;;5046383;28;44053;-71
2022/05/11 00:38:26;;;;;;;1.70;1.70;;;21.30;68.60;;;;;;5046438;28;43979;-71
2022/05/11 00:40:56;;;;;;;1.70;1.70;;;21.20;68.80;;;;;;5046045;28;43383;-71
2022/05/11 00:43:28;;;;;;;1.60;1.60;;;21.20;68.90;;;;;;5047118;28;43946;-71
2022/05/11 00:46:02;;;;;;;1.80;1.80;;;21.20;69.10;;;;;;5046445;28;44837;-72
2022/05/11 00:51:17;;;;;;;1.60;1.60;;;21.20;71.40;;;;;;5046492;28;43759;-70
2022/05/11 00:53:46;;;;;;;1.60;1.60;;;21.30;71.00;;;;;;5046993;28;43479;-71
2022/05/11 00:56:14;;;;;;;1.90;1.90;;;21.50;70.40;;;;;;5046323;28;44712;-71
2022/05/11 00:58:44;;;;;;;1.60;1.60;;;21.60;69.60;;;;;;5046050;28;43929;-71
2022/05/11 01:01:12;;;;;;;1.70;1.70;;;21.70;69.30;;;;;;5021650;28;43944;-71
2022/05/11 01:03:45;;;;;;;1.73;1.67;;;21.70;69.10;;;;;;5022056;28;44113;-71
2022/05/11 01:06:13;;;;;;;1.73;1.63;;;21.60;69.00;;;;;;5024509;28;46112;-71
2022/05/11 01:08:41;;;;;;;1.83;1.83;;;21.50;68.50;;;;;;5050161;28;44048;-71
2022/05/11 01:11:09;;;;;;;1.50;1.50;;;21.40;68.20;;;;;;5049521;28;43926;-71
2022/05/11 01:13:37;;;;;;;1.60;1.60;;;21.40;68.40;;;;;;5050161;28;44081;-72
2022/05/11 01:16:05;;;;;;;1.80;1.80;;;21.30;68.50;;;;;;5049609;28;43964;-70
2022/05/11 01:18:33;;;;;;;1.80;1.80;;;21.30;70.10;;;;;;5049334;28;44032;-71
2022/05/11 01:21:05;;;;;;;1.83;1.83;;;21.30;70.80;;;;;;5049567;28;44276;-70
2022/05/11 01:23:36;;;;;;;1.60;1.60;;;21.40;70.90;;;;;;5050014;28;44072;-71
2022/05/11 01:26:05;;;;;;;1.70;1.70;;;21.40;69.90;;;;;;5049231;28;43934;-72
2022/05/11 01:28:33;;;;;;;1.80;1.80;;;21.50;69.80;;;;;;5047937;28;44696;-70
2022/05/11 01:31:04;;;;;;;1.47;1.47;;;21.50;69.50;;;;;;5049614;28;43944;-70
2022/05/11 01:33:32;;;;;;;1.80;1.80;;;21.40;68.60;;;;;;5050439;28;43424;-71
2022/05/11 01:36:04;;;;;;;1.63;1.63;;;21.30;68.50;;;;;;5049387;28;43940;-71
2022/05/11 01:38:36;;;;;;;1.80;1.80;;;21.30;68.80;;;;;;5049191;28;44001;-71
2022/05/11 01:41:09;;;;;;;1.53;1.53;;;21.20;68.80;;;;;;5047337;28;43962;-71
2022/05/11 01:43:38;;;;;;;1.50;1.50;;;21.20;69.00;;;;;;5049777;28;43916;-70
2022/05/11 01:46:07;;;;;;;1.90;1.90;;;21.10;69.00;;;;;;5048844;28;45053;-71
2022/05/11 01:48:36;;;;;;;1.60;1.60;;;21.10;70.80;;;;;;5048896;28;43941;-71
2022/05/11 01:51:04;;;;;;;1.60;1.60;;;21.20;70.90;;;;;;5049293;28;43932;-71
2022/05/11 01:53:32;;;;;;;1.70;1.70;;;21.30;70.90;;;;;;5031186;28;43474;-72
2022/05/11 01:56:00;;;;;;;1.70;1.70;;;21.50;70.30;;;;;;5049029;28;43604;-71
2022/05/11 01:58:29;;;;;;;1.70;1.70;;;21.60;69.30;;;;;;5031011;28;44697;-71
2022/05/11 02:00:57;;;;;;;1.60;1.60;;;21.70;69.30;;;;;;5049429;28;43501;-71
2022/05/11 02:03:25;;;;;;;1.53;1.53;;;21.60;69.20;;;;;;5049662;28;43383;-70
2022/05/11 02:08:41;;;;;;;1.80;1.80;;;21.50;68.30;;;;;;5048846;28;43438;-70
2022/05/11 02:11:09;;;;;;;1.73;1.73;;;21.40;68.30;;;;;;5030740;28;43767;-71
2022/05/11 02:13:38;;;;;;;1.70;1.70;;;21.30;68.50;;;;;;5048965;28;43914;-72
2022/05/11 02:16:06;;;;;;;1.50;1.50;;;21.30;69.40;;;;;;5048658;28;45007;-71
2022/05/11 02:18:34;;;;;;;1.60;1.60;;;21.20;70.80;;;;;;5048055;28;43996;-71
2022/05/11 02:21:02;;;;;;;1.70;1.70;;;21.20;70.90;;;;;;5048728;28;43917;-72
2022/05/11 02:23:30;;;;;;;1.63;1.63;;;21.40;70.60;;;;;;5030700;28;43958;-71
2022/05/11 02:25:58;;;;;;;1.77;1.77;;;21.50;69.80;;;;;;5048589;28;43942;-71
2022/05/11 02:28:26;;;;;;;1.70;1.70;;;21.60;69.40;;;;;;5049111;28;43803;-71
2022/05/11 02:30:57;;;;;;;1.60;1.60;;;21.60;69.40;;;;;;5048879;28;43409;-71
2022/05/11 02:33:25;;;;;;;1.60;1.60;;;21.60;69.50;;;;;;5048859;28;43389;-71
2022/05/11 02:35:53;;;;;;;1.80;1.80;;;21.50;68.70;;;;;;5048234;28;43948;-70
2022/05/11 02:38:25;;;;;;;1.73;1.73;;;21.40;68.20;;;;;;5048520;28;43857;-70
2022/05/11 02:40:53;;;;;;;1.60;1.60;;;21.40;68.50;;;;;;5048250;28;43473;-71
2022/05/11 02:43:21;;;;;;;1.63;1.63;;;21.30;68.60;;;;;;5048929;28;43906;-72
2022/05/11 02:45:49;;;;;;;1.87;1.87;;;21.20;68.80;;;;;;5048263;28;45091;-70
2022/05/11 02:48:21;;;;;;;1.80;1.80;;;21.20;70.80;;;;;;5048249;28;44063;-70
2022/05/11 02:50:52;;;;;;;1.90;1.90;;;21.30;70.70;;;;;;5048557;28;43962;-71
2022/05/11 02:53:21;;;;;;;1.50;1.50;;;21.40;70.20;;;;;;5047487;28;44310;-71
2022/05/11 02:55:50;;;;;;;1.50;1.50;;;21.40;69.90;;;;;;5048730;28;43890;-70
2022/05/11 02:58:20;;;;;;;1.80;1.80;;;21.40;69.70;;;;;;5047079;28;44838;-70
2022/05/11 03:00:49;;;;;;;1.90;1.90;;;21.40;68.90;;;;;;5048181;28;43977;-71
2022/05/11 03:03:19;;;;;;;1.60;1.60;;;21.30;68.60;;;;;;5048347;28;44009;-71
2022/05/11 03:05:47;;;;;;;1.60;1.60;;;21.30;68.80;;;;;;5047958;28;44090;-70
2022/05/11 03:08:15;;;;;;;1.73;1.73;;;21.20;68.90;;;;;;5047811;28;43910;-71
2022/05/11 03:10:44;;;;;;;1.80;1.80;;;21.20;69.00;;;;;;5029627;28;43952;-71
2022/05/11 03:13:14;;;;;;;2.03;1.93;;;21.10;69.00;;;;;;5048306;28;43369;-71
2022/05/11 03:15:42;;;;;;;1.80;1.80;;;21.10;69.70;;;;;;5047414;28;44765;-70
2022/05/11 03:18:10;;;;;;;1.90;1.90;;;21.10;71.00;;;;;;5029373;28;45145;-70
2022/05/11 03:20:40;;;;;;;1.80;1.80;;;21.20;71.10;;;;;;5048482;28;44039;-71
2022/05/11 03:23:07;;;;;;;1.70;1.70;;;21.40;70.60;;;;;;5048648;28;43895;-71
2022/05/11 03:25:35;;;;;;;1.83;1.83;;;21.60;70.30;;;;;;5047610;28;44001;-72
2022/05/11 03:28:04;;;;;;;1.97;1.97;;;21.70;69.40;;;;;;5047926;28;44055;-70
2022/05/11 03:30:32;;;;;;;1.60;1.60;;;21.70;69.10;;;;;;5046545;28;43941;-72
2022/05/11 03:35:46;;;;;;;1.53;1.53;;;21.60;69.00;;;;;;5040952;28;43757;-71
2022/05/11 03:38:14;;;;;;;1.80;1.80;;;21.50;68.30;;;;;;5041160;28;43937;-69
2022/05/11 03:40:42;;;;;;;1.67;1.67;;;21.40;68.30;;;;;;5047379;28;43901;-71
2022/05/11 03:43:10;;;;;;;1.60;1.60;;;21.30;68.50;;;;;;5048471;28;43972;-70
2022/05/11 03:45:38;;;;;;;1.70;1.70;;;21.20;69.70;;;;;;5047714;28;45171;-70
2022/05/11 03:48:07;;;;;;;1.60;1.60;;;21.30;71.10;;;;;;5047482;28;43933;-71
2022/05/11 03:50:36;;;;;;;1.77;1.77;;;21.40;70.60;;;;;;5047829;28;44059;-71
2022/05/11 03:53:05;;;;;;;1.70;1.70;;;21.50;70.20;;;;;;5047866;28;43437;-72
2022/05/11 03:55:33;;;;;;;1.90;1.90;;;21.50;69.80;;;;;;5047385;28;43967;-71
2022/05/11 03:58:02;;;;;;;1.70;1.70;;;21.50;69.60;;;;;;5047305;28;43404;-71
2022/05/11 04:00:30;;;;;;;1.60;1.60;;;21.40;68.70;;;;;;5045141;28;43913;-71
2022/05/11 04:02:58;;;;;;;1.93;1.93;;;21.30;68.50;;;;;;5047988;28;43914;-70
2022/05/11 04:05:28;;;;;;;1.87;1.87;;;21.30;68.70;;;;;;5040999;28;45664;-71
2022/05/11 04:08:01;;;;;;;1.63;1.63;;;21.20;68.80;;;;;;5047516;28;43389;-70
2022/05/11 04:10:31;;;;;;;1.70;1.70;;;21.20;69.00;;;;;;5047702;28;43958;-71
2022/05/11 04:13:00;;;;;;;1.90;1.90;;;21.10;69.00;;;;;;5048108;28;43952;-71
2022/05/11 04:15:30;;;;;;;1.90;1.90;;;21.10;69.40;;;;;;5047706;28;44057;-72
2022/05/11 04:17:58;;;;;;;1.70;1.70;;;21.10;71.90;;;;;;5047423;28;43885;-71
2022/05/11 04:20:26;;;;;;;1.77;1.77;;;21.20;71.00;;;;;;5047184;28;43449;-70
2022/05/11 04:22:55;;;;;;;1.90;1.90;;;21.30;70.60;;;;;;5047645;28;43909;-71
2022/05/11 04:25:23;;;;;;;1.90;1.90;;;21.30;70.10;;;;;;5046874;28;43996;-70
2022/05/11 04:27:53;;;;;;;1.90;1.90;;;21.40;69.80;;;;;;5047194;28;43524;-71
2022/05/11 04:30:22;;;;;;;1.90;1.90;;;21.30;68.80;;;;;;5047249;28;43844;-71
2022/05/11 04:32:50;;;;;;;1.80;1.80;;;21.20;68.60;;;;;;5047559;28;43933;-70
2022/05/11 04:35:18;;;;;;;1.60;1.60;;;21.20;68.80;;;;;;5046959;28;43980;-71
2022/05/11 04:37:46;;;;;;;1.90;1.90;;;21.20;69.00;;;;;;5047056;28;43426;-71
2022/05/11 04:40:15;;;;;;;1.87;1.87;;;21.10;69.00;;;;;;5046703;28;43961;-70
2022/05/11 04:42:44;;;;;;;1.97;1.97;;;21.10;69.10;;;;;;5047033;28;44043;-71
2022/05/11 04:45:14;;;;;;;1.77;1.77;;;21.10;69.40;;;;;;5047047;28;44743;-70
2022/05/11 04:47:45;;;;;;;1.77;1.77;;;21.00;70.90;;;;;;5046654;28;43941;-71
2022/05/11 04:50:13;;;;;;;2.03;2.03;;;21.20;71.20;;;;;;5046948;28;43864;-71
2022/05/11 04:52:46;;;;;;;1.80;1.80;;;21.30;71.10;;;;;;5047228;28;43398;-70
2022/05/11 04:55:14;;;;;;;1.97;1.97;;;21.50;70.10;;;;;;5046629;28;43600;-72
2022/05/11 04:57:42;;;;;;;2.07;2.07;;;21.70;69.40;;;;;;5028327;28;44701;-71
2022/05/11 05:00:12;;;;;;;1.90;1.90;;;21.80;69.40;;;;;;5046873;28;43921;-70
2022/05/11 05:02:41;;;;;;;1.90;1.90;;;21.70;68.90;;;;;;5047207;28;43950;-72
2022/05/11 05:05:10;;;;;;;1.80;1.80;;;21.70;68.80;;;;;;5046421;28;44050;-71
2022/05/11 05:07:39;;;;;;;2.00;2.00;;;21.60;68.30;;;;;;5046882;28;43905;-72
2022/05/11 05:10:09;;;;;;;1.80;1.80;;;21.50;68.10;;;;;;5047012;28;43392;-70
2022/05/11 05:12:37;;;;;;;2.10;2.10;;;21.40;68.20;;;;;;5045342;28;43908;-72
2022/05/11 05:15:06;;;;;;;2.10;2.10;;;21.30;69.00;;;;;;5046649;28;45264;-71
2022/05/11 05:17:34;;;;;;;1.80;1.80;;;21.20;70.40;;;;;;5046112;28;44055;-70
2022/05/11 05:20:08;;;;;;;2.10;2.10;;;21.30;70.80;;;;;;5046483;28;43898;-71
2022/05/11 05:22:36;;;;;;;2.30;2.30;;;21.40;70.50;;;;;;5040382;28;43331;-72
2022/05/11 05:25:04;;;;;;;2.00;2.00;;;21.50;69.80;;;;;;5039893;28;44934;-72
2022/05/11 05:27:33;;;;;;;2.20;2.20;;;21.50;69.50;;;;;;5039829;28;44562;-71
2022/05/11 05:32:46;;;;;;;2.10;2.10;;;21.40;68.60;;;;;;5046736;28;43847;-70
2022/05/11 05:35:17;;;;;;;1.90;1.90;;;21.30;68.60;;;;;;5045966;28;43909;-71
2022/05/11 05:37:45;;;;;;;2.17;2.17;;;21.20;68.70;;;;;;5046296;28;43932;-71
2022/05/11 05:40:13;;;;;;;1.90;1.90;;;21.20;68.80;;;;;;5046176;28;44016;-71
2022/05/11 05:42:41;;;;;;;1.93;1.93;;;21.10;68.90;;;;;;5046271;28;43986;-71
2022/05/11 05:45:10;;;;;;;2.10;2.10;;;21.10;69.00;;;;;;5046074;28;43942;-71
2022/05/11 05:47:38;;;;;;;1.93;1.93;;;21.10;70.90;;;;;;5045721;28;43842;-71
2022/05/11 05:50:07;;;;;;;1.80;1.80;;;21.20;70.90;;;;;;5046190;28;44016;-70
2022/05/11 05:52:37;;;;;;;1.90;1.90;;;21.30;70.40;;;;;;5047303;28;44045;-71
2022/05/11 05:55:06;;;;;;;2.10;2.10;;;21.30;70.00;;;;;;5049414;28;43952;-71
2022/05/11 05:57:35;;;;;;;2.10;2.10;;;21.40;69.80;;;;;;5049081;28;44074;-71
2022/05/11 06:00:04;;;;;;;1.80;1.80;;;21.30;69.10;;;;;;5049604;28;43992;-71
2022/05/11 06:02:32;;;;;;;2.17;2.17;;;21.30;68.60;;;;;;5034035;28;44390;-71
2022/05/11 06:05:04;;;;;;;1.90;1.90;;;21.20;68.60;;;;;;5049459;28;44013;-71
2022/05/11 06:07:33;;;;;;;2.30;2.30;;;21.20;68.80;;;;;;5049042;28;44064;-70
2022/05/11 06:10:03;;;;;;;2.13;2.13;;;21.20;68.90;;;;;;5030683;28;43384;-70
2022/05/11 06:12:32;;;;;;;1.90;1.90;;;21.10;68.90;;;;;;5049560;28;43868;-72
2022/05/11 06:15:03;;;;;;;2.20;2.20;;;21.10;69.10;;;;;;5049588;28;43896;-71
2022/05/11 06:17:32;;;;;;;2.10;2.10;;;21.10;70.10;;;;;;5049569;28;43937;-71
2022/05/11 06:20:00;;;;;;;2.70;2.17;;;21.10;70.30;;;;;;5049760;28;44007;-70
2022/05/11 06:22:28;;;;;;;2.23;2.23;;;21.30;70.50;;;;;;5050601;28;43903;-71
2022/05/11 06:24:56;;;;;;;2.30;2.10;;;21.40;70.20;;;;;;5049709;28;44979;-71
2022/05/11 06:27:26;;;;;;;2.20;2.20;;;21.60;69.40;;;;;;5049553;28;43424;-71
2022/05/11 06:29:55;;;;;;;2.20;2.20;;;21.70;68.80;;;;;;5049626;28;43985;-70
2022/05/11 06:32:23;;;;;;;2.13;1.97;;;21.70;68.90;;;;;;5050170;28;43953;-71
2022/05/11 06:34:52;;;;;;;2.00;2.00;;;21.60;68.40;;;;;;5030404;28;45876;-71
2022/05/11 06:37:20;;;;;;;2.07;2.07;;;21.60;68.30;;;;;;5031175;28;45240;-71
2022/05/11 06:39:49;;;;;;;2.20;2.20;;;21.50;68.00;;;;;;5031176;28;44066;-70
2022/05/11 06:42:18;;;;;;;2.50;2.40;;;21.40;67.90;;;;;;5042964;28;44214;-71
2022/05/11 06:44:49;;;;;;;2.87;2.77;;;21.30;68.10;;;;;;5043180;28;44908;-71
2022/05/11 06:47:17;;;;;;;2.97;2.67;;;21.20;69.50;;;;;;5043281;28;44037;-71
2022/05/11 06:49:45;;;;;;;3.07;2.77;;;21.20;70.10;;;;;;5049267;28;43936;-71
2022/05/11 06:52:13;;;;;;;2.93;2.53;;;21.30;70.50;;;;;;5049784;28;44190;-71
2022/05/11 07:00:33;;;;;;;3.37;2.77;;;21.40;69.10;;;;;;4986961;28;43417;-71
2022/05/11 07:03:01;;;;;;;3.40;2.97;;;21.30;68.40;;;;;;5004842;28;43682;-71
2022/05/11 07:05:35;;;;;;;2.73;2.53;;;21.20;68.40;;;;;;5048387;28;44789;-70
2022/05/11 07:08:03;;;;;;;2.70;2.60;;;21.20;68.60;;;;;;5029498;28;44610;-70
2022/05/11 07:10:31;;;;;;;3.10;2.80;;;21.20;68.70;;;;;;5048556;28;43504;-71
2022/05/11 07:12:59;;;;;;;17.73;3.67;;;21.10;68.70;;;;;;5048932;28;43400;-72
2022/05/11 07:15:27;;;;;;;141.17;12.10;;;21.10;68.40;;;;;;5048533;28;43996;-72
2022/05/11 07:17:59;;;;;;;128.80;13.17;;;21.00;68.60;;;;;;5048548;28;43955;-71
2022/05/11 07:20:34;;;;;;;85.13;9.00;;;21.20;69.80;;;;;;5049037;28;43887;-71
2022/05/11 07:23:02;;;;;;;66.33;9.00;;;21.30;70.00;;;;;;5030934;28;43819;-71
2022/05/11 07:25:30;;;;;;;63.83;8.23;;;21.50;69.70;;;;;;5048751;28;44051;-71
2022/05/11 07:27:58;;;;;;;59.90;8.20;;;21.60;68.80;;;;;;5048719;28;43784;-72
2022/05/11 07:30:27;;;;;;;46.20;7.77;;;21.60;68.60;;;;;;5048768;28;43748;-71
2022/05/11 07:33:03;;;;;;;49.30;7.77;;;21.50;68.60;;;;;;5048935;28;43384;-71
2022/05/11 07:35:31;;;;;;;35.97;6.83;;;21.50;67.90;;;;;;5048226;28;43968;-70
2022/05/11 07:38:01;;;;;;;25.63;6.23;;;21.40;67.40;;;;;;5048591;28;43775;-71
2022/05/11 07:40:29;;;;;;;17.50;6.07;;;21.30;67.60;;;;;;5048686;28;43878;-71
2022/05/11 07:42:59;;;;;;;27.37;5.70;;;21.30;67.80;;;;;;5048653;28;43477;-71
2022/05/11 07:45:27;;;;;;;29.50;5.93;;;21.20;68.30;;;;;;5044119;28;45341;-71
2022/05/11 07:47:55;;;;;;;23.10;6.00;;;21.20;70.30;;;;;;5048151;28;44020;-70
2022/05/11 07:50:24;;;;;;;22.23;6.70;;;21.30;70.40;;;;;;5048115;28;43998;-70
2022/05/11 07:52:54;;;;;;;21.40;5.60;;;21.40;69.90;;;;;;5048880;28;43857;-70
2022/05/11 07:55:24;;;;;;;22.97;5.53;;;21.40;69.30;;;;;;5048171;28;44350;-71
2022/05/11 08:00:41;;;;;;;18.50;5.60;;;21.30;68.20;;;;;;5043876;28;44069;-71
2022/05/11 08:03:09;;;;;;;19.97;5.00;;;21.30;68.20;;;;;;5048704;28;43921;-72
2022/05/11 08:05:39;;;;;;;18.00;4.50;;;21.20;68.20;;;;;;5047927;28;43812;-71
2022/05/11 08:08:08;;;;;;;16.80;4.63;;;21.10;68.30;;;;;;5029663;28;44098;-71
2022/05/11 08:10:37;;;;;;;12.53;4.57;;;21.10;68.40;;;;;;5047863;28;43923;-71
2022/05/11 08:13:09;;;;;;;18.73;5.37;;;21.10;68.60;;;;;;5048343;28;43975;-70
2022/05/11 08:15:38;;;;;;;17.63;5.30;;;21.10;68.70;;;;;;5047221;28;44798;-71
2022/05/11 08:18:08;;;;;;;22.67;5.17;;;21.00;69.30;;;;;;5047521;28;44004;-71
2022/05/11 08:20:40;;;;;;;15.40;4.73;;;21.10;70.60;;;;;;5047802;28;43925;-70
2022/05/11 08:23:10;;;;;;;18.20;5.10;;;21.20;70.70;;;;;;5048376;28;43880;-71
2022/05/11 08:25:39;;;;;;;31.63;5.77;;;21.40;69.90;;;;;;5048027;28;43901;-71
2022/05/11 08:28:10;;;;;;;26.73;6.30;;;21.50;69.20;;;;;;5047465;28;43926;-72
2022/05/11 08:33:27;;;;;;;22.13;4.90;;;21.90;68.20;;;;;;5043354;28;44121;-70
2022/05/11 08:36:16;;;;;;;26.07;4.50;;;22.10;67.40;;;;;;5046805;28;43864;-71
2022/05/11 08:38:46;;;;;;;23.37;5.10;;;22.40;67.80;;;;;;5047386;28;44122;-71
2022/05/11 08:41:20;;;;;;;31.30;5.63;;;22.50;66.20;;;;;;5046982;28;43793;-71
2022/05/11 08:43:48;;;;;;;36.50;6.17;;;22.60;66.10;;;;;;5048092;28;44088;-72
2022/05/11 08:46:21;;;;;;;32.07;6.10;;;22.70;65.70;;;;;;5047179;28;44033;-71
2022/05/11 08:48:55;;;;;;;35.50;5.73;;;22.70;65.30;;;;;;5040848;28;44020;-72
2022/05/11 08:51:27;;;;;;;31.70;6.17;;;22.60;65.10;;;;;;5041484;28;43938;-72
2022/05/11 08:54:04;;;;;;;18.70;5.33;;;22.60;65.70;;;;;;5047772;28;44036;-71
2022/05/11 08:56:33;;;;;;;21.67;5.90;;;22.40;66.20;;;;;;5028857;28;45698;-71
2022/05/11 08:59:01;;;;;;;22.07;5.70;;;22.20;66.90;;;;;;5047397;28;43347;-71
2022/05/11 09:01:34;;;;;;;19.67;5.37;;;22.00;66.60;;;;;;5047089;28;43970;-71
2022/05/11 09:04:07;;;;;;;20.93;5.53;;;21.90;68.00;;;;;;5047710;28;44007;-71
2022/05/11 09:06:38;;;;;;;17.30;5.47;;;21.80;68.10;;;;;;5047130;28;43987;-70
2022/05/11 09:09:08;;;;;;;9.03;4.43;;;21.90;67.90;;;;;;5046861;28;44000;-72
2022/05/11 09:11:41;;;;;;;12.77;4.33;;;21.80;67.90;;;;;;5046983;28;43352;-71
2022/05/11 09:14:09;;;;;;;17.60;4.70;;;21.80;68.20;;;;;;5045951;28;44141;-71
2022/05/11 09:16:42;;;;;;;8.07;4.40;;;21.70;67.40;;;;;;5046642;28;43694;-72
2022/05/11 09:19:11;;;;;;;12.30;5.03;;;21.60;67.20;;;;;;5028780;28;44576;-71
2022/05/11 09:21:49;;;;;;;15.10;4.40;;;21.50;67.40;;;;;;5045723;28;44009;-71
2022/05/11 09:24:28;;;;;;;20.03;5.63;;;21.40;67.60;;;;;;5028387;28;43941;-71
2022/05/11 09:27:06;;;;;;;16.20;4.53;;;21.30;67.80;;;;;;5048219;28;45155;-73
2022/05/11 09:29:37;;;;;;;27.73;5.37;;;21.20;67.90;;;;;;5050510;28;43913;-71
2022/05/11 09:32:20;;;;;;;36.00;6.07;;;21.20;70.30;;;;;;5050387;28;43977;-71
2022/05/11 09:34:48;;;;;;;47.67;6.23;;;21.20;70.30;;;;;;5050207;28;43895;-71
2022/05/11 09:37:25;;;;;;;42.20;7.97;;;21.40;70.00;;;;;;5049973;28;43999;-70
2022/05/11 09:39:56;;;;;;;38.83;7.10;;;21.50;69.70;;;;;;5050457;28;43381;-71
2022/05/11 09:42:29;;;;;;;38.17;6.47;;;21.60;68.90;;;;;;5050204;28;43373;-71
2022/05/11 09:44:57;;;;;;;32.27;6.27;;;21.60;69.00;;;;;;5050425;28;44096;-72
2022/05/11 09:47:28;;;;;;;28.77;5.93;;;21.60;69.00;;;;;;5035733;28;47647;-71
2022/05/11 09:49:57;;;;;;;28.73;6.00;;;21.60;68.00;;;;;;5049344;28;43421;-70
2022/05/11 09:52:30;;;;;;;20.50;6.40;;;21.50;68.00;;;;;;5049827;28;44030;-71
2022/05/11 09:54:59;;;;;;;20.57;5.60;;;21.40;68.00;;;;;;5049827;28;44045;-70
2022/05/11 09:57:29;;;;;;;17.17;5.23;;;21.30;68.20;;;;;;5049016;28;45107;-71
2022/05/11 10:00:17;;;;;;;17.70;5.70;;;21.30;68.30;;;;;;5049401;28;44081;-71
2022/05/11 10:02:47;;;;;;;27.10;6.47;;;21.20;70.50;;;;;;5049278;28;44016;-71
2022/05/11 10:05:17;;;;;;;24.57;6.17;;;21.30;70.50;;;;;;5043259;28;43998;-70
2022/05/11 10:07:48;;;;;;;19.73;6.07;;;21.40;70.00;;;;;;5027724;28;46320;-70
2022/05/11 10:10:25;;;;;;;21.80;6.37;;;21.60;69.90;;;;;;5049141;28;43358;-70
2022/05/11 10:12:56;;;;;;;25.90;6.97;;;21.70;69.00;;;;;;5049118;28;43894;-71
2022/05/11 10:24:11;;;;;;;31.33;7.73;;;21.60;68.00;;;;;;5046757;28;44047;-71
2022/05/11 10:26:43;;;;;;;28.43;6.97;;;21.50;68.10;;;;;;5042922;28;43452;-71
2022/05/11 10:29:16;;;;;;;26.00;6.87;;;21.40;68.30;;;;;;5048858;28;43944;-70
2022/05/11 10:31:47;;;;;;;34.20;7.23;;;21.40;70.20;;;;;;5048745;28;43961;-71
2022/05/11 10:34:17;;;;;;;31.13;7.03;;;21.40;70.50;;;;;;5030252;28;43335;-71
2022/05/11 10:36:48;;;;;;;30.23;7.17;;;21.50;70.00;;;;;;5049023;28;44024;-71
2022/05/11 10:39:24;;;;;;;35.47;7.47;;;21.60;69.60;;;;;;5048100;28;43898;-71
2022/05/11 10:41:57;;;;;;;28.67;7.20;;;21.80;69.20;;;;;;5048668;28;43782;-70
2022/05/11 10:44:33;;;;;;;27.23;6.90;;;21.80;69.00;;;;;;5048739;28;43922;-71
2022/05/11 10:47:06;;;;;;;21.90;6.13;;;21.80;69.10;;;;;;5048807;28;43953;-71
2022/05/11 10:49:43;;;;;;;25.07;6.77;;;21.70;68.90;;;;;;5048440;28;43895;-70
2022/05/11 10:52:29;;;;;;;19.60;6.70;;;21.60;68.20;;;;;;5042508;28;43945;-71
2022/05/11 10:55:15;;;;;;;21.47;6.70;;;21.50;68.10;;;;;;5048386;28;43942;-71
2022/05/11 10:57:55;;;;;;;12.57;6.27;;;21.50;68.30;;;;;;5048916;28;44093;-70
2022/05/11 11:00:29;;;;;;;23.10;6.13;;;21.40;68.60;;;;;;5048228;28;43994;-71
2022/05/11 11:03:35;;;;;;;20.87;6.07;;;21.30;70.80;;;;;;5048222;28;43446;-71
2022/05/11 11:09:07;;;;;;;20.57;6.40;;;21.50;70.40;;;;;;5046590;28;43854;-71
2022/05/11 11:11:38;;;;;;;22.83;6.47;;;21.50;70.10;;;;;;5047968;28;43963;-70
2022/05/11 11:14:09;;;;;;;12.67;5.77;;;21.50;69.20;;;;;;5048176;28;44249;-71
2022/05/11 11:17:00;;;;;;;13.90;5.30;;;21.40;68.70;;;;;;5043470;28;44296;-71
2022/05/11 11:19:28;;;;;;;16.70;5.90;;;21.40;68.80;;;;;;5048481;28;44071;-71
2022/05/11 11:22:00;;;;;;;17.17;6.10;;;21.30;69.00;;;;;;5047753;28;43733;-70
2022/05/11 11:24:28;;;;;;;15.97;5.93;;;21.30;69.10;;;;;;5048001;28;43984;-70
2022/05/11 11:26:56;;;;;;;15.23;6.00;;;21.20;69.50;;;;;;5047968;28;44278;-72
2022/05/11 11:29:31;;;;;;;20.10;5.97;;;21.20;71.50;;;;;;5048328;28;43426;-70
2022/05/11 11:32:17;;;;;;;23.70;6.90;;;21.30;71.30;;;;;;5048204;28;43874;-70
2022/05/11 11:34:49;;;;;;;17.77;6.50;;;21.50;69.50;;;;;;5047375;28;44028;-71
2022/05/11 11:37:48;;;;;;;15.53;6.30;;;21.60;70.40;;;;;;5026649;28;43400;-71
2022/05/11 11:40:32;;;;;;;19.17;6.30;;;21.80;70.00;;;;;;5044632;28;44042;-70
2022/05/11 11:43:38;;;;;;;13.63;6.37;;;21.90;69.40;;;;;;5045572;28;44080;-71
2022/05/11 11:46:05;;;;;;;13.87;5.50;;;22.00;69.10;;;;;;5043752;28;43825;-71
2022/05/11 11:48:36;;;;;;;13.20;5.50;;;21.90;69.10;;;;;;5047538;28;44034;-70
2022/05/11 11:51:06;;;;;;;7.93;4.83;;;21.80;68.80;;;;;;5046928;28;44060;-71
2022/05/11 11:53:37;;;;;;;16.57;5.57;;;21.80;70.10;;;;;;5047490;28;44028;-71
2022/05/11 11:56:36;;;;;;;12.93;5.10;;;21.80;70.10;;;;;;5047265;28;44075;-72
2022/05/11 11:59:12;;;;;;;15.23;5.30;;;21.90;69.30;;;;;;5045232;28;43404;-70
2022/05/11 12:01:42;;;;;;;11.30;5.13;;;22.00;68.90;;;;;;5047719;28;43932;-70
2022/05/11 12:04:18;;;;;;;16.53;5.33;;;22.10;68.90;;;;;;5047390;28;43905;-71
2022/05/11 12:15:11;;;;;;;12.97;5.27;;;21.90;69.40;;;;;;5047122;28;43926;-72
2022/05/11 12:17:41;;;;;;;14.07;5.27;;;21.90;69.80;;;;;;5041269;28;44022;-71
2022/05/11 12:20:12;;;;;;;9.23;4.83;;;22.00;69.40;;;;;;5045278;28;43462;-71
2022/05/11 12:22:43;;;;;;;6.57;5.00;;;22.00;69.30;;;;;;5029337;28;43983;-71
2022/05/11 12:25:26;;;;;;;8.20;4.43;;;22.00;69.30;;;;;;5046941;28;43941;-71
2022/05/11 12:27:55;;;;;;;7.40;4.40;;;21.90;69.00;;;;;;5045287;28;43923;-70
2022/05/11 12:30:25;;;;;;;9.77;4.70;;;21.80;68.10;;;;;;5047385;28;43948;-71
2022/05/11 12:32:57;;;;;;;7.27;4.37;;;21.70;68.20;;;;;;5047554;28;43977;-71
2022/05/11 12:35:29;;;;;;;7.13;4.50;;;21.60;68.30;;;;;;5046651;28;43980;-70
2022/05/11 12:37:59;;;;;;;7.87;4.60;;;21.60;70.30;;;;;;5046839;28;44002;-71
2022/05/11 12:40:30;;;;;;;5.57;4.30;;;21.70;70.60;;;;;;5047162;28;43798;-72
2022/05/11 12:42:59;;;;;;;7.00;4.10;;;21.80;70.10;;;;;;5028784;28;43960;-72
2022/05/11 12:45:33;;;;;;;7.40;4.37;;;21.90;69.70;;;;;;5046621;28;43592;-71
2022/05/11 12:48:03;;;;;;;7.43;4.43;;;22.00;69.30;;;;;;5022677;28;45303;-70
2022/05/11 12:50:33;;;;;;;7.23;4.33;;;22.10;69.00;;;;;;5028465;28;43957;-72
2022/05/11 12:53:09;;;;;;;8.47;5.20;;;22.10;68.80;;;;;;5047194;28;44036;-71
2022/05/11 12:55:38;;;;;;;11.37;4.50;;;22.10;68.90;;;;;;5046444;28;43909;-71
2022/05/11 12:58:06;;;;;;;8.50;4.50;;;22.00;68.70;;;;;;5046613;28;43466;-71
2022/05/11 13:00:35;;;;;;;8.73;4.40;;;21.90;68.00;;;;;;5046845;28;43968;-71
2022/05/11 13:03:23;;;;;;;7.97;4.77;;;21.80;69.60;;;;;;5049850;28;43445;-71
2022/05/11 13:05:53;;;;;;;9.37;4.60;;;21.80;69.90;;;;;;5050081;28;43936;-70
2022/05/11 13:08:21;;;;;;;11.67;4.90;;;21.90;69.80;;;;;;5048806;28;44281;-71
2022/05/11 13:10:49;;;;;;;7.23;4.30;;;22.00;69.70;;;;;;5050515;28;43991;-72
2022/05/11 13:13:25;;;;;;;9.57;4.60;;;21.90;69.60;;;;;;5050371;28;44049;-71
2022/05/11 13:15:54;;;;;;;12.43;4.50;;;21.80;69.10;;;;;;5043320;28;43988;-71
2022/05/11 13:18:28;;;;;;;9.33;4.10;;;21.80;68.50;;;;;;5043144;28;43944;-71
2022/05/11 13:20:58;;;;;;;8.73;4.20;;;21.70;68.60;;;;;;5050092;28;43869;-71
2022/05/11 13:23:32;;;;;;;9.20;3.90;;;21.60;68.80;;;;;;5050423;28;43893;-70
2022/05/11 13:26:01;;;;;;;8.13;4.50;;;21.50;69.00;;;;;;5049371;28;44178;-70
2022/05/11 13:28:30;;;;;;;7.60;4.43;;;21.50;70.80;;;;;;5049833;28;44041;-71
2022/05/11 13:30:58;;;;;;;9.33;4.40;;;21.50;71.20;;;;;;5049825;28;43814;-71
2022/05/11 13:33:39;;;;;;;4.17;3.57;;;21.70;70.90;;;;;;5049774;28;43953;-71
2022/05/11 13:36:19;;;;;;;5.23;3.70;;;21.80;70.30;;;;;;5049406;28;44024;-72
2022/05/11 13:38:55;;;;;;;4.40;3.90;;;22.00;69.80;;;;;;5049672;28;44008;-72
2022/05/11 13:41:29;;;;;;;4.37;3.97;;;22.00;69.60;;;;;;5043118;28;44061;-71
2022/05/11 13:43:58;;;;;;;5.83;3.53;;;22.00;69.40;;;;;;5044294;28;44055;-71